Time;durP1;ratioP1;P1;durP2;ratioP2;P2;SDS_P1;SDS_P2;PMS_P1;PMS_P2;Temp;Humidity;BMP_temperature;BMP_pressure;BME280_temperature;BME280_humidity;BME280_pressure;Samples;Min_cycle;Max_cycle;Signal;HPM_P1;HPM_P2
2023/12/22 00:00:57;;;;;;;34.30;24.40;;;;;;;7.84;69.94;97600.37;4451118;32;20176;-79
2023/12/22 00:03:27;;;;;;;29.70;22.65;;;;;;;7.81;70.46;97590.09;4450742;32;20164;-80
2023/12/22 00:05:58;;;;;;;33.10;23.75;;;;;;;7.87;70.21;97592.16;4450749;32;20509;-78
2023/12/22 00:08:27;;;;;;;28.75;23.33;;;;;;;8.08;69.36;97578.75;4450997;32;20168;-79
2023/12/22 00:11:00;;;;;;;29.15;21.90;;;;;;;7.80;70.59;97600.78;4450633;32;20529;-79
2023/12/22 00:13:29;;;;;;;31.52;23.00;;;;;;;7.80;70.57;97599.00;4450661;32;20173;-79
2023/12/22 00:16:01;;;;;;;34.22;22.40;;;;;;;7.49;71.84;97616.84;4450586;32;20151;-79
2023/12/22 00:18:30;;;;;;;29.10;21.87;;;;;;;7.53;71.51;97620.03;4450525;32;20168;-78
2023/12/22 00:21:01;;;;;;;27.83;20.48;;;;;;;7.39;72.01;97610.75;4450517;32;20156;-78
2023/12/22 00:23:35;;;;;;;26.00;20.00;;;;;;;7.51;71.59;97612.25;4450643;32;20148;-78
2023/12/22 00:26:06;;;;;;;19.77;16.48;;;;;;;7.64;71.51;97619.84;4450465;32;20191;-79
2023/12/22 00:28:35;;;;;;;22.65;16.92;;;;;;;7.72;70.83;97634.94;4450285;32;20642;-79
2023/12/22 00:31:04;;;;;;;20.62;14.70;;;;;;;7.66;71.15;97641.62;4450311;32;20155;-79
2023/12/22 00:33:33;;;;;;;19.67;17.00;;;;;;;7.46;71.59;97647.91;4451361;32;20172;-78
2023/12/22 00:36:05;;;;;;;18.30;14.60;;;;;;;7.38;72.42;97661.81;4452488;32;20500;-79
2023/12/22 00:38:34;;;;;;;16.48;11.45;;;;;;;7.40;73.10;97649.31;4452827;32;20196;-79
2023/12/22 00:41:03;;;;;;;15.57;11.20;;;;;;;7.49;73.40;97655.56;4452483;32;20179;-78
2023/12/22 00:43:32;;;;;;;14.55;8.68;;;;;;;7.32;74.32;97636.84;4452428;32;20183;-78
2023/12/22 00:46:05;;;;;;;10.57;7.32;;;;;;;7.54;73.51;97634.88;4452394;32;20180;-78
2023/12/22 00:48:34;;;;;;;11.95;7.53;;;;;;;7.28;74.57;97650.44;4452416;32;20155;-78
2023/12/22 00:51:06;;;;;;;9.43;6.85;;;;;;;7.23;74.76;97645.59;4452456;32;20172;-78
2023/12/22 00:53:36;;;;;;;;;;;;;;;7.22;74.96;97651.84;4452909;32;20187;-78
2023/12/22 00:56:09;;;;;;;11.45;6.07;;;;;;;7.23;74.96;97663.19;4452399;32;20375;-78
2023/12/22 00:58:38;;;;;;;10.50;6.70;;;;;;;7.36;74.95;97685.66;4452578;32;20156;-79
2023/12/22 01:01:08;;;;;;;12.85;6.28;;;;;;;7.33;74.64;97693.00;4452274;32;20155;-78
2023/12/22 01:03:37;;;;;;;8.20;5.35;;;;;;;7.31;75.09;97702.84;4452114;32;20179;-78
2023/12/22 01:06:08;;;;;;;9.93;5.20;;;;;;;7.28;74.94;97653.87;4452348;32;20179;-78
2023/12/22 01:08:38;;;;;;;6.87;5.53;;;;;;;7.42;74.40;97628.09;4452482;32;20139;-78
2023/12/22 01:11:07;;;;;;;9.07;4.95;;;;;;;7.36;74.53;97618.94;4452161;32;20167;-79
2023/12/22 01:13:36;;;;;;;7.57;4.50;;;;;;;7.10;75.13;97611.66;4452179;32;20175;-78
2023/12/22 01:16:08;;;;;;;5.78;3.70;;;;;;;7.35;74.40;97619.94;4438007;32;20171;-78
2023/12/22 01:18:39;;;;;;;5.28;3.67;;;;;;;7.55;73.30;97647.88;4452158;32;20171;-78
2023/12/22 01:21:10;;;;;;;5.43;3.55;;;;;;;7.44;73.74;97653.31;4452143;32;20151;-79
2023/12/22 01:23:39;;;;;;;5.50;3.80;;;;;;;7.73;72.74;97652.44;4452357;32;20179;-78
2023/12/22 01:26:11;;;;;;;5.32;3.75;;;;;;;7.72;72.31;97645.47;4452115;32;20175;-78
2023/12/22 01:28:40;;;;;;;5.18;2.67;;;;;;;7.62;72.67;97648.97;4452030;32;20187;-79
2023/12/22 01:31:13;;;;;;;4.47;3.10;;;;;;;7.91;71.53;97649.88;4452347;32;20168;-79
2023/12/22 01:33:43;;;;;;;3.42;2.72;;;;;;;7.72;71.86;97650.75;4452199;32;20136;-78
2023/12/22 01:36:13;;;;;;;5.22;3.08;;;;;;;7.60;72.12;97650.94;4452063;32;20156;-79
2023/12/22 01:38:45;;;;;;;4.10;2.80;;;;;;;7.73;72.06;97657.72;4452606;32;20152;-79
2023/12/22 01:41:15;;;;;;;5.03;2.72;;;;;;;7.91;71.03;97647.22;4451934;32;20195;-79
2023/12/22 01:43:44;;;;;;;4.80;2.78;;;;;;;7.92;70.60;97651.53;4451910;32;20176;-79
2023/12/22 01:46:16;;;;;;;3.15;2.30;;;;;;;7.76;71.11;97660.03;4452125;32;20155;-79
2023/12/22 01:48:46;;;;;;;3.53;2.15;;;;;;;7.69;70.98;97651.88;4451955;32;20163;-79
2023/12/22 01:51:17;;;;;;;6.87;2.47;;;;;;;7.27;71.68;97657.50;4452030;32;20184;-78
2023/12/22 01:53:47;;;;;;;3.17;2.00;;;;;;;7.29;71.85;97673.19;4452532;32;20175;-78
2023/12/22 01:56:16;;;;;;;4.15;2.37;;;;;;;7.27;71.52;97672.47;4451824;32;20199;-79
2023/12/22 01:59:05;;;;;;;2.72;1.90;;;;;;;7.43;71.17;97671.91;4452116;32;20173;-79
2023/12/22 02:01:34;;;;;;;3.53;2.20;;;;;;;7.45;71.36;97655.00;4452205;32;20184;-79
2023/12/22 02:04:05;;;;;;;3.70;2.40;;;;;;;7.25;71.79;97634.94;4452075;32;20148;-79
2023/12/22 02:06:36;;;;;;;3.60;2.00;;;;;;;7.39;71.37;97610.75;4451883;32;20139;-79
2023/12/22 02:09:06;;;;;;;3.72;1.87;;;;;;;7.48;70.86;97603.81;4452016;32;20178;-78
2023/12/22 02:11:35;;;;;;;5.93;2.10;;;;;;;7.43;71.11;97606.88;4452179;32;20187;-79
2023/12/22 02:14:04;;;;;;;3.08;1.83;;;;;;;7.37;71.32;97583.75;4452018;32;20172;-79
2023/12/22 02:16:43;;;;;;;3.60;2.00;;;;;;;7.29;71.33;97579.19;4452043;32;20155;-79
2023/12/22 02:19:25;;;;;;;2.90;1.83;;;;;;;7.59;70.65;97593.09;4452276;32;20152;-78
2023/12/22 02:22:04;;;;;;;3.07;2.10;;;;;;;7.43;70.94;97592.87;4452070;32;20172;-79
2023/12/22 02:24:38;;;;;;;1.98;1.67;;;;;;;7.34;70.43;97557.69;4451746;32;20622;-79
2023/12/22 02:27:18;;;;;;;8.50;2.13;;;;;;;7.64;69.86;97604.03;4451953;32;20166;-79
2023/12/22 02:29:51;;;;;;;2.90;1.48;;;;;;;7.69;69.59;97591.28;4452176;32;20290;-79
2023/12/22 02:32:25;;;;;;;2.92;1.70;;;;;;;7.54;69.98;97554.00;4451488;32;20456;-79
2023/12/22 02:34:56;;;;;;;1.83;1.55;;;;;;;7.76;69.34;97546.69;4451649;32;20731;-79
2023/12/22 02:37:27;;;;;;;2.57;1.53;;;;;;;7.86;68.73;97568.56;4437561;32;20160;-79
2023/12/22 02:39:58;;;;;;;1.50;1.40;;;;;;;7.59;69.64;97577.28;4451966;32;20263;-78
2023/12/22 02:42:32;;;;;;;1.65;1.15;;;;;;;7.73;68.96;97599.72;4451454;32;20483;-78
2023/12/22 02:45:02;;;;;;;2.22;1.35;;;;;;;7.68;69.39;97618.59;4451767;32;20548;-79
2023/12/22 02:47:32;;;;;;;1.42;1.35;;;;;;;7.75;69.06;97637.28;4437996;32;20508;-79
2023/12/22 02:50:02;;;;;;;2.75;1.75;;;;;;;7.68;69.39;97630.94;4451798;32;20156;-78
2023/12/22 02:52:32;;;;;;;3.87;1.77;;;;;;;7.53;69.85;97635.84;4451333;32;20174;-79
2023/12/22 02:55:03;;;;;;;2.78;1.75;;;;;;;7.63;69.27;97628.72;4451483;32;20171;-79
2023/12/22 02:57:32;;;;;;;1.80;1.48;;;;;;;7.66;69.14;97617.06;4451258;32;20169;-78
2023/12/22 03:00:02;;;;;;;2.20;1.50;;;;;;;7.23;70.17;97594.72;4451538;32;20140;-78
2023/12/22 03:02:49;;;;;;;2.45;1.90;;;;;;;7.42;69.67;97607.03;4451433;32;20274;-78
2023/12/22 03:05:19;;;;;;;3.08;2.65;;;;;;;7.06;70.76;97596.28;4451934;32;20162;-78
2023/12/22 03:07:54;;;;;;;3.25;1.98;;;;;;;7.09;70.62;97594.19;4451592;32;20653;-79
2023/12/22 03:10:24;;;;;;;2.75;1.77;;;;;;;7.17;70.20;97600.53;4451352;32;20148;-79
2023/12/22 03:12:53;;;;;;;1.87;1.40;;;;;;;6.96;71.18;97611.25;4445148;32;20180;-78
2023/12/22 03:15:23;;;;;;;6.00;2.10;;;;;;;6.95;71.13;97615.69;4451308;32;20183;-78
2023/12/22 03:17:54;;;;;;;1.98;1.55;;;;;;;6.79;71.02;97633.84;4451492;32;20143;-78
2023/12/22 03:20:23;;;;;;;1.40;1.20;;;;;;;6.51;72.05;97630.19;4451728;32;20168;-79
2023/12/22 03:22:54;;;;;;;3.78;1.90;;;;;;;6.75;70.77;97625.38;4451195;32;20156;-78
2023/12/22 03:25:25;;;;;;;2.33;1.40;;;;;;;6.87;70.17;97641.88;4451189;32;20159;-79
2023/12/22 03:27:56;;;;;;;1.50;1.33;;;;;;;7.11;69.11;97654.59;4451335;32;20150;-78
2023/12/22 03:30:25;;;;;;;1.20;1.10;;;;;;;6.80;69.99;97672.34;4451203;32;20152;-78
2023/12/22 03:32:54;;;;;;;2.62;1.30;;;;;;;6.84;69.92;97677.19;4451319;32;20167;-78
2023/12/22 03:35:23;;;;;;;4.75;1.30;;;;;;;6.82;70.08;97675.69;4451461;32;20132;-78
2023/12/22 03:37:53;;;;;;;1.95;1.52;;;;;;;6.88;68.76;97672.47;4444914;32;20218;-78
2023/12/22 03:40:23;;;;;;;1.30;1.20;;;;;;;6.83;67.34;97665.00;4450998;32;20182;-78
2023/12/22 03:42:54;;;;;;;2.58;0.90;;;;;;;6.86;66.76;97656.84;4444727;32;20172;-78
2023/12/22 03:45:23;;;;;;;2.22;1.08;;;;;;;6.71;65.24;97654.75;4450961;32;20155;-78
2023/12/22 03:47:54;;;;;;;1.95;1.42;;;;;;;6.80;64.97;97651.28;4444792;32;20424;-78
2023/12/22 03:50:23;;;;;;;1.87;1.15;;;;;;;6.90;64.25;97646.84;4451340;32;20172;-79
2023/12/22 03:52:53;;;;;;;3.37;1.08;;;;;;;6.96;63.27;97656.81;4444683;32;20449;-78
2023/12/22 03:55:22;;;;;;;5.65;1.75;;;;;;;6.98;62.23;97661.97;4450825;32;20622;-78
2023/12/22 03:57:56;;;;;;;3.78;1.00;;;;;;;7.01;62.75;97686.22;4450829;32;20177;-78
2023/12/22 04:00:25;;;;;;;1.10;1.02;;;;;;;6.91;62.83;97674.84;4450750;32;20473;-79
2023/12/22 04:02:55;;;;;;;5.70;1.20;;;;;;;6.85;62.77;97685.91;4450777;32;20460;-77
2023/12/22 04:05:26;;;;;;;3.90;1.25;;;;;;;7.04;61.65;97679.81;4436833;32;20172;-78
2023/12/22 04:07:55;;;;;;;4.43;1.30;;;;;;;6.86;61.88;97677.06;4444949;32;20528;-78
2023/12/22 04:10:24;;;;;;;5.30;1.48;;;;;;;6.80;61.23;97690.75;4452732;32;20159;-78
2023/12/22 04:12:53;;;;;;;1.83;1.00;;;;;;;6.85;61.07;97692.03;4446331;32;20728;-78
2023/12/22 04:15:24;;;;;;;3.67;1.20;;;;;;;6.85;61.35;97685.91;4452550;32;20152;-78
2023/12/22 04:17:57;;;;;;;3.25;1.37;;;;;;;7.04;60.79;97701.72;4452516;32;20484;-78
2023/12/22 04:20:26;;;;;;;4.07;1.48;;;;;;;6.88;61.26;97690.91;4438909;32;20151;-78
2023/12/22 04:22:55;;;;;;;2.03;1.33;;;;;;;6.96;60.82;97690.22;4452386;32;20547;-78
2023/12/22 04:25:25;;;;;;;1.90;1.17;;;;;;;7.01;60.90;97717.81;4452386;32;20163;-78
2023/12/22 04:27:55;;;;;;;1.30;1.20;;;;;;;7.02;60.70;97722.09;4452462;32;20520;-78
2023/12/22 04:30:26;;;;;;;2.00;1.35;;;;;;;7.00;61.08;97715.31;4452389;32;20219;-78
2023/12/22 04:32:59;;;;;;;4.78;1.10;;;;;;;7.07;60.96;97722.53;4452352;32;20164;-78
2023/12/22 04:35:28;;;;;;;5.32;2.00;;;;;;;7.04;60.93;97722.78;4452713;32;20191;-78
2023/12/22 04:37:58;;;;;;;2.72;1.10;;;;;;;7.03;60.58;97718.50;4452441;32;20148;-78
2023/12/22 04:40:28;;;;;;;5.03;1.80;;;;;;;6.73;60.89;97718.59;4452423;32;20164;-79
2023/12/22 04:42:57;;;;;;;4.60;1.02;;;;;;;6.91;60.31;97722.22;4436950;32;20152;-79
2023/12/22 04:45:29;;;;;;;4.70;1.45;;;;;;;6.86;60.60;97720.00;4436799;32;20168;-78
2023/12/22 04:48:01;;;;;;;3.95;1.17;;;;;;;7.07;60.21;97729.59;4436855;32;20160;-78
2023/12/22 04:50:31;;;;;;;2.30;1.23;;;;;;;6.84;60.01;97726.38;4437272;32;20160;-79
2023/12/22 04:53:00;;;;;;;2.53;1.27;;;;;;;6.77;60.78;97723.47;4437183;32;20464;-79
2023/12/22 04:55:30;;;;;;;2.00;1.45;;;;;;;6.71;60.82;97737.16;4436909;32;20176;-78
2023/12/22 04:58:00;;;;;;;5.03;1.90;;;;;;;6.78;60.67;97729.56;4436787;32;20449;-78
2023/12/22 05:00:30;;;;;;;6.18;3.42;;;;;;;6.86;60.58;97729.72;4436815;32;20447;-78
2023/12/22 05:03:04;;;;;;;5.70;1.80;;;;;;;6.83;60.25;97730.81;4422625;32;20176;-79
2023/12/22 05:05:33;;;;;;;4.22;1.70;;;;;;;6.95;60.26;97741.22;4437041;32;20446;-79
2023/12/22 05:08:02;;;;;;;1.70;1.30;;;;;;;7.09;59.84;97739.03;4436780;32;20159;-79
2023/12/22 05:10:35;;;;;;;4.47;1.77;;;;;;;6.99;59.80;97751.34;4436705;32;20176;-79
2023/12/22 05:13:10;;;;;;;1.50;1.25;;;;;;;7.19;59.38;97746.91;4436876;32;20548;-78
2023/12/22 05:15:40;;;;;;;3.25;1.67;;;;;;;7.20;59.42;97758.28;4436890;32;20152;-78
2023/12/22 05:18:12;;;;;;;3.45;1.40;;;;;;;7.30;59.13;97767.03;4436908;32;20160;-79
2023/12/22 05:20:44;;;;;;;4.62;1.98;;;;;;;7.13;59.48;97782.56;4436917;32;20167;-78
2023/12/22 05:23:13;;;;;;;1.80;1.12;;;;;;;6.96;59.64;97785.00;4436639;32;20226;-78
2023/12/22 05:25:42;;;;;;;4.70;1.80;;;;;;;6.96;59.34;97783.19;4436559;32;20183;-78
2023/12/22 05:28:11;;;;;;;2.28;1.35;;;;;;;6.63;60.20;97787.00;4452120;32;20173;-78
2023/12/22 05:30:48;;;;;;;1.95;1.33;;;;;;;6.71;59.28;97784.53;4452117;32;20186;-78
2023/12/22 05:33:17;;;;;;;6.72;1.90;;;;;;;6.64;59.97;97786.84;4452014;32;20144;-79
2023/12/22 05:35:46;;;;;;;4.70;1.40;;;;;;;6.30;59.71;97796.81;4452264;32;20136;-79
2023/12/22 05:38:16;;;;;;;2.28;1.87;;;;;;;6.65;59.26;97793.78;4451580;32;20524;-78
2023/12/22 05:40:46;;;;;;;5.40;1.60;;;;;;;6.60;59.38;97806.50;4452085;32;20254;-78
2023/12/22 05:43:15;;;;;;;2.80;1.65;;;;;;;6.39;59.38;97796.03;4451955;32;20151;-78
2023/12/22 05:45:45;;;;;;;4.53;1.73;;;;;;;6.47;59.20;97803.28;4451836;32;20167;-79
2023/12/22 05:48:16;;;;;;;8.18;3.83;;;;;;;6.40;58.77;97804.75;4451950;32;20223;-78
2023/12/22 05:50:45;;;;;;;5.47;1.85;;;;;;;6.32;58.61;97789.63;4452372;32;20148;-79
2023/12/22 05:53:15;;;;;;;4.05;2.90;;;;;;;6.20;58.51;97803.81;4451558;32;20706;-78
2023/12/22 05:55:43;;;;;;;4.55;2.20;;;;;;;6.00;58.79;97805.50;4451765;32;20602;-78
2023/12/22 05:58:13;;;;;;;5.65;1.33;;;;;;;6.24;58.19;97817.53;4452068;32;20156;-78
2023/12/22 06:00:45;;;;;;;3.60;1.95;;;;;;;6.04;58.06;97827.09;4451738;32;20180;-78
2023/12/22 06:03:15;;;;;;;4.17;2.03;;;;;;;5.84;58.40;97829.56;4451790;32;20128;-78
2023/12/22 06:05:45;;;;;;;6.80;2.12;;;;;;;5.89;57.26;97822.13;4451983;32;20149;-79
2023/12/22 06:08:14;;;;;;;4.20;1.70;;;;;;;5.76;57.94;97820.66;4437389;32;20183;-78
2023/12/22 06:10:46;;;;;;;13.62;2.12;;;;;;;5.93;56.99;97824.53;4451665;32;20450;-78
2023/12/22 06:13:15;;;;;;;2.17;1.65;;;;;;;6.01;57.06;97832.62;4451644;32;20164;-78
2023/12/22 06:15:44;;;;;;;6.53;1.92;;;;;;;5.98;57.07;97846.00;4451587;32;20144;-78
2023/12/22 06:18:14;;;;;;;8.20;1.90;;;;;;;6.01;57.12;97853.66;4451650;32;20148;-78
2023/12/22 06:20:47;;;;;;;6.70;1.90;;;;;;;6.01;56.81;97862.38;4451907;32;20156;-78
2023/12/22 06:23:17;;;;;;;8.38;2.47;;;;;;;6.00;56.68;97876.47;4451454;32;20435;-78
2023/12/22 06:25:47;;;;;;;11.82;3.75;;;;;;;6.11;56.44;97879.06;4451622;32;20171;-78
2023/12/22 06:28:17;;;;;;;10.77;4.85;;;;;;;5.84;56.54;97886.56;4451564;32;20143;-78
2023/12/22 06:30:47;;;;;;;15.95;8.48;;;;;;;5.96;56.47;97890.84;4450635;32;20159;-79
2023/12/22 06:33:17;;;;;;;12.35;4.65;;;;;;;6.07;56.30;97900.47;4451539;32;20167;-78
2023/12/22 06:35:53;;;;;;;12.30;3.67;;;;;;;6.03;56.05;97896.44;4451782;32;20147;-79
2023/12/22 06:38:22;;;;;;;8.52;2.90;;;;;;;5.91;55.55;97882.47;4451357;32;20184;-79
2023/12/22 06:40:52;;;;;;;8.75;2.25;;;;;;;5.83;55.96;97892.78;4451552;32;20151;-79
2023/12/22 06:43:21;;;;;;;7.25;2.22;;;;;;;5.78;55.86;97889.69;4451301;32;20175;-79
2023/12/22 06:45:54;;;;;;;6.07;1.98;;;;;;;5.93;55.70;97885.00;4451490;32;20406;-78
2023/12/22 06:48:25;;;;;;;5.35;1.67;;;;;;;5.71;55.35;97889.37;4451180;32;20172;-79
2023/12/22 06:50:55;;;;;;;7.78;2.10;;;;;;;6.10;55.10;97881.81;4451293;32;20148;-78
2023/12/22 06:53:25;;;;;;;3.28;1.67;;;;;;;6.09;54.48;97873.06;4451579;32;20179;-78
2023/12/22 06:55:54;;;;;;;5.65;1.75;;;;;;;6.36;53.77;97883.09;4451145;32;20191;-79
2023/12/22 06:58:25;;;;;;;7.28;2.03;;;;;;;6.10;53.55;97882.66;4451232;32;20160;-79
2023/12/22 07:00:56;;;;;;;4.68;1.83;;;;;;;6.24;53.72;97899.06;4451184;32;20168;-79
2023/12/22 07:03:25;;;;;;;4.20;1.60;;;;;;;5.98;53.93;97888.94;4451648;32;20160;-78
2023/12/22 07:05:55;;;;;;;8.27;2.75;;;;;;;6.18;53.15;97899.56;4451051;32;20409;-78
2023/12/22 07:08:25;;;;;;;4.78;1.85;;;;;;;6.13;52.74;97899.94;4451260;32;20159;-79
2023/12/22 07:10:57;;;;;;;4.47;1.90;;;;;;;6.14;52.87;97899.84;4445520;32;20524;-78
2023/12/22 07:13:27;;;;;;;9.38;1.75;;;;;;;5.97;53.18;97904.81;4436588;32;20630;-78
2023/12/22 07:15:57;;;;;;;10.75;2.55;;;;;;;6.08;53.38;97905.59;4436859;32;20176;-79
2023/12/22 07:18:30;;;;;;;11.90;2.75;;;;;;;6.09;53.24;97907.25;4451083;32;20460;-79
2023/12/22 07:21:01;;;;;;;5.75;1.58;;;;;;;6.22;52.65;97909.72;4451034;32;20159;-78
2023/12/22 07:23:30;;;;;;;5.22;1.62;;;;;;;6.65;58.30;97908.72;4451272;32;20175;-78
2023/12/22 07:25:59;;;;;;;7.72;1.98;;;;;;;6.89;52.10;97906.66;4450937;32;20179;-78
2023/12/22 07:28:28;;;;;;;7.05;2.30;;;;;;;6.86;51.60;97898.19;4450799;32;20153;-79
2023/12/22 07:30:58;;;;;;;3.60;1.90;;;;;;;6.84;52.12;97893.03;4450850;32;20152;-79
2023/12/22 07:33:29;;;;;;;8.20;2.20;;;;;;;6.93;52.03;97894.06;4450657;32;20167;-79
2023/12/22 07:35:58;;;;;;;3.37;1.45;;;;;;;7.02;51.75;97882.72;4450632;32;20450;-78
2023/12/22 07:38:29;;;;;;;6.87;2.03;;;;;;;6.92;52.15;97884.47;4451184;32;20621;-78
2023/12/22 07:41:00;;;;;;;3.45;1.65;;;;;;;6.95;52.44;97892.13;4436568;32;20718;-79
2023/12/22 07:43:30;;;;;;;3.17;1.73;;;;;;;6.89;52.69;97893.50;4436049;32;20144;-78
2023/12/22 07:46:00;;;;;;;9.02;2.17;;;;;;;6.96;53.39;97900.84;4450777;32;20159;-78
2023/12/22 07:48:32;;;;;;;6.75;2.10;;;;;;;6.62;54.01;97901.12;4450658;32;20187;-78
2023/12/22 07:51:05;;;;;;;6.60;3.15;;;;;;;7.13;53.29;97901.06;4450635;32;20163;-78
2023/12/22 07:53:39;;;;;;;2.97;1.50;;;;;;;7.24;52.97;97896.66;4450857;32;20151;-78
2023/12/22 07:56:10;;;;;;;7.47;2.70;;;;;;;7.79;52.24;97904.94;4450433;32;20187;-79
2023/12/22 07:58:40;;;;;;;6.13;1.63;;;;;;;8.14;51.42;97897.31;4435054;32;20556;-79
2023/12/22 08:01:15;;;;;;;3.72;1.90;;;;;;;8.72;49.95;97896.41;4435109;32;20481;-78
2023/12/22 08:03:45;;;;;;;4.30;1.62;;;;;;;8.29;50.57;97913.53;4434933;32;20168;-78
2023/12/22 08:06:14;;;;;;;4.62;1.77;;;;;;;8.86;49.69;97908.31;4434884;32;20157;-78
2023/12/22 08:08:45;;;;;;;5.80;1.67;;;;;;;9.64;47.53;97908.78;4435326;32;20133;-78
2023/12/22 08:11:14;;;;;;;6.53;1.85;;;;;;;10.00;46.45;97903.50;4434583;32;20163;-77
2023/12/22 08:13:43;;;;;;;4.07;2.05;;;;;;;10.39;45.26;97904.03;4435157;32;20168;-79
2023/12/22 08:16:12;;;;;;;2.72;1.75;;;;;;;11.17;43.79;97896.09;4435058;32;20163;-78
2023/12/22 08:18:41;;;;;;;4.00;1.77;;;;;;;11.68;42.05;97886.31;4435070;32;20152;-78
2023/12/22 08:21:10;;;;;;;6.57;2.30;;;;;;;12.04;41.63;97888.72;4434746;32;20136;-78
2023/12/22 08:23:54;;;;;;;6.43;2.03;;;;;;;11.88;41.03;97896.63;4434768;32;20159;-77
2023/12/22 08:26:24;;;;;;;3.00;1.83;;;;;;;12.31;40.08;97890.22;4435025;32;20172;-78
2023/12/22 08:28:54;;;;;;;6.53;2.12;;;;;;;12.60;39.94;97887.06;4434729;32;20164;-79
2023/12/22 08:31:23;;;;;;;3.60;1.90;;;;;;;12.56;40.28;97891.03;4420555;32;20152;-79
2023/12/22 08:33:52;;;;;;;6.37;1.77;;;;;;;12.54;40.20;97890.37;4434441;32;20160;-78
2023/12/22 08:36:21;;;;;;;4.85;1.60;;;;;;;12.77;39.71;97878.03;4434442;32;20175;-78
2023/12/22 08:38:51;;;;;;;5.97;1.75;;;;;;;12.16;40.44;97911.31;4434613;32;20180;-77
2023/12/22 08:41:22;;;;;;;3.53;1.48;;;;;;;12.24;40.81;97906.00;4434933;32;20144;-78
2023/12/22 08:43:51;;;;;;;4.30;1.92;;;;;;;11.81;41.77;97902.59;4434538;32;20496;-78
2023/12/22 08:46:20;;;;;;;4.15;1.67;;;;;;;11.99;40.80;97918.38;4434484;32;20440;-79
2023/12/22 08:48:50;;;;;;;3.80;1.77;;;;;;;12.09;41.90;97902.31;4434524;32;20165;-78
2023/12/22 08:51:20;;;;;;;5.35;2.17;;;;;;;12.71;40.42;97918.59;4434372;32;20172;-77
2023/12/22 08:53:50;;;;;;;3.12;1.60;;;;;;;12.37;40.93;97924.06;4434757;32;20168;-77
2023/12/22 08:56:21;;;;;;;1.92;1.77;;;;;;;12.72;40.24;97927.37;4436909;32;20164;-78
2023/12/22 08:58:55;;;;;;;3.03;1.60;;;;;;;12.91;39.99;97931.53;4436884;32;20152;-79
2023/12/22 09:01:24;;;;;;;3.90;1.73;;;;;;;12.49;40.49;97938.69;4437137;32;20156;-78
2023/12/22 09:03:54;;;;;;;3.50;2.08;;;;;;;12.41;39.82;97944.00;4436809;32;20176;-78
2023/12/22 09:06:25;;;;;;;4.65;2.05;;;;;;;12.29;40.42;97947.97;4437056;32;20164;-78
2023/12/22 09:08:54;;;;;;;4.72;1.37;;;;;;;12.65;39.83;97931.72;4437103;32;20512;-78
2023/12/22 09:11:25;;;;;;;2.87;1.58;;;;;;;11.79;40.44;97935.56;4437089;32;20148;-78
2023/12/22 09:13:56;;;;;;;3.53;1.40;;;;;;;11.57;41.52;97937.84;4436793;32;20196;-78
2023/12/22 09:16:29;;;;;;;2.42;1.33;;;;;;;11.87;41.14;97932.97;4436715;32;20164;-78
2023/12/22 09:18:58;;;;;;;4.10;1.40;;;;;;;11.14;42.18;97935.31;4436640;32;20524;-79
2023/12/22 09:21:28;;;;;;;4.18;1.37;;;;;;;11.59;41.43;97937.66;4422568;32;20183;-79
2023/12/22 09:23:57;;;;;;;2.78;1.73;;;;;;;11.85;41.05;97939.44;4422322;32;20596;-78
2023/12/22 09:26:29;;;;;;;3.35;1.67;;;;;;;12.31;40.48;97940.66;4437137;32;20145;-78
2023/12/22 09:29:00;;;;;;;8.38;2.08;;;;;;;12.41;39.84;97919.28;4452081;32;20171;-78
2023/12/22 09:31:29;;;;;;;4.65;1.30;;;;;;;12.69;39.60;97919.75;4452040;32;20465;-79
2023/12/22 09:33:59;;;;;;;2.35;1.48;;;;;;;12.67;39.22;97914.63;4451764;32;20168;-79
2023/12/22 09:36:29;;;;;;;7.03;1.92;;;;;;;13.56;37.89;97907.38;4452166;32;20168;-79
2023/12/22 09:38:59;;;;;;;5.37;1.48;;;;;;;14.04;37.08;97924.06;4451964;32;20179;-78
2023/12/22 09:41:28;;;;;;;4.07;1.65;;;;;;;14.39;36.46;97917.34;4452574;32;20175;-78
2023/12/22 09:44:01;;;;;;;1.75;1.08;;;;;;;13.92;37.13;97921.00;4422228;32;20191;-78
2023/12/22 09:46:31;;;;;;;2.87;1.12;;;;;;;13.52;36.68;97935.34;4436619;32;20414;-78
2023/12/22 09:49:04;;;;;;;5.15;1.75;;;;;;;13.27;38.09;97931.94;4436476;32;20524;-78
2023/12/22 09:51:34;;;;;;;4.43;1.55;;;;;;;12.49;39.27;97948.47;4422327;32;20172;-77
2023/12/22 09:54:05;;;;;;;3.05;1.23;;;;;;;12.38;39.54;97939.00;4436584;32;20439;-77
2023/12/22 09:56:36;;;;;;;3.97;1.05;;;;;;;12.69;39.26;97944.50;4436633;32;20168;-78
2023/12/22 09:59:13;;;;;;;3.45;1.27;;;;;;;12.74;39.84;97933.34;4436395;32;20184;-78
2023/12/22 10:01:45;;;;;;;3.80;1.02;;;;;;;12.49;40.11;97935.19;4436300;32;20156;-78
2023/12/22 10:04:17;;;;;;;2.30;1.00;;;;;;;11.33;42.08;97933.25;4436296;32;20148;-78
2023/12/22 10:06:49;;;;;;;2.95;1.23;;;;;;;11.81;41.84;97939.72;4436378;32;20519;-78
2023/12/22 10:09:22;;;;;;;3.47;1.10;;;;;;;11.58;42.18;97933.34;4436240;32;20171;-78
2023/12/22 10:11:53;;;;;;;6.90;1.40;;;;;;;11.91;41.80;97923.69;4436359;32;20148;-77
2023/12/22 10:14:31;;;;;;;4.78;1.35;;;;;;;12.31;41.37;97924.72;4436850;32;20184;-78
2023/12/22 10:17:01;;;;;;;1.70;1.20;;;;;;;11.73;42.11;97922.97;4430962;32;20168;-78
2023/12/22 10:19:30;;;;;;;5.55;1.20;;;;;;;12.13;41.89;97930.19;4437417;32;20626;-79
2023/12/22 10:21:59;;;;;;;1.83;1.67;;;;;;;12.05;42.17;97938.16;4437087;32;20156;-78
2023/12/22 10:24:38;;;;;;;3.35;1.48;;;;;;;11.71;42.78;97928.41;4436229;32;20204;-78
2023/12/22 10:27:08;;;;;;;2.25;1.10;;;;;;;10.37;45.07;97927.19;4436890;32;20220;-79
2023/12/22 10:29:39;;;;;;;2.97;1.20;;;;;;;10.49;45.75;97925.97;4438576;32;20172;-79
2023/12/22 10:32:09;;;;;;;2.33;1.33;;;;;;;10.70;44.32;97928.28;4438162;32;20175;-82
2023/12/22 10:34:39;;;;;;;6.90;1.45;;;;;;;10.71;44.47;97910.56;4437439;32;20188;-79
2023/12/22 10:37:08;;;;;;;1.52;1.27;;;;;;;10.99;43.79;97896.16;4437745;32;20164;-79
2023/12/22 10:39:38;;;;;;;6.93;1.10;;;;;;;10.93;44.95;97875.59;4437603;32;20183;-79
2023/12/22 10:42:07;;;;;;;4.07;1.48;;;;;;;10.77;44.94;97870.19;4439902;32;20176;-79
2023/12/22 10:44:42;;;;;;;1.23;1.10;;;;;;;10.70;43.86;97870.00;4452331;32;20191;-79
2023/12/22 10:47:11;;;;;;;1.95;1.40;;;;;;;10.54;44.49;97873.38;4451755;32;20182;-79
2023/12/22 10:49:41;;;;;;;1.75;1.65;;;;;;;9.88;45.92;97894.16;4452243;32;20186;-79
2023/12/22 10:52:20;;;;;;;3.55;1.23;;;;;;;10.37;44.88;97876.06;4454174;32;20148;-79
2023/12/22 10:54:50;;;;;;;3.33;1.10;;;;;;;10.66;44.91;97875.78;4445960;32;257529;-78
2023/12/22 10:57:20;;;;;;;1.45;0.90;;;;;;;10.25;44.00;97886.88;4453368;32;20203;-79
2023/12/22 10:59:52;;;;;;;4.53;1.33;;;;;;;10.29;44.98;97880.31;4438784;32;20195;-79
2023/12/22 11:02:29;;;;;;;1.95;1.20;;;;;;;10.37;44.91;97884.00;4453626;32;20172;-79
2023/12/22 11:05:01;;;;;;;;;;;;;;;10.75;43.98;97888.06;4451719;32;20368;-79
2023/12/22 11:07:34;;;;;;;4.82;1.15;;;;;;;10.89;43.76;97895.44;4437126;32;20094;-78
2023/12/22 11:10:06;;;;;;;2.92;1.50;;;;;;;10.86;43.22;97890.47;4451173;32;20152;-79
2023/12/22 11:12:37;;;;;;;4.75;1.67;;;;;;;11.58;42.85;97907.66;4451134;32;20155;-78
2023/12/22 11:15:10;;;;;;;3.28;1.67;;;;;;;11.45;42.44;97904.66;4452633;32;20179;-77
2023/12/22 11:17:47;;;;;;;3.17;1.10;;;;;;;11.16;42.49;97893.56;4451896;32;20195;-80
2023/12/22 11:20:26;;;;;;;0.88;0.88;;;;;;;11.69;42.26;97898.56;4451209;32;20152;-79
2023/12/22 11:22:57;;;;;;;3.25;1.85;;;;;;;11.60;42.00;97906.66;4451340;32;20167;-78
2023/12/22 11:25:33;;;;;;;1.60;1.10;;;;;;;11.51;42.39;97898.69;4451200;32;20463;-79
2023/12/22 11:28:06;;;;;;;2.17;1.27;;;;;;;11.24;42.86;97902.38;4436986;32;20139;-78
2023/12/22 11:30:37;;;;;;;3.28;1.35;;;;;;;10.61;43.86;97894.75;4451212;32;20156;-78
2023/12/22 11:33:07;;;;;;;6.28;1.87;;;;;;;10.25;44.56;97913.34;4451211;32;20171;-78
2023/12/22 11:35:38;;;;;;;2.03;0.85;;;;;;;10.34;44.90;97885.97;4451516;32;20135;-79
2023/12/22 11:38:12;;;;;;;1.42;1.20;;;;;;;9.96;44.91;97918.84;4451431;32;20155;-79
2023/12/22 11:40:42;;;;;;;2.55;0.90;;;;;;;10.08;44.87;97916.81;4450867;32;20453;-78
2023/12/22 11:43:11;;;;;;;5.37;1.67;;;;;;;10.12;44.43;97906.75;4450854;32;20172;-78
2023/12/22 11:45:43;;;;;;;1.17;1.08;;;;;;;10.15;43.97;97911.75;4450810;32;20160;-78
2023/12/22 11:48:17;;;;;;;2.45;1.48;;;;;;;10.58;43.79;97914.44;4451122;32;20149;-78
2023/12/22 11:50:47;;;;;;;3.15;1.30;;;;;;;10.59;43.87;97894.91;4451372;32;20132;-79
2023/12/22 11:53:23;;;;;;;1.62;1.12;;;;;;;10.50;43.71;97893.22;4450830;32;20151;-79
2023/12/22 11:56:00;;;;;;;1.35;1.08;;;;;;;10.18;44.11;97914.94;4450919;32;20429;-78